Time,TemperatureF,DewpointF,PressureIn,WindDirection,WindDirectionDegrees,WindSpeedMPH,WindSpeedGustMPH,Humidity,HourlyPrecipIn,Conditions,Clouds,dailyrainin,SolarRadiationWatts/m^2,SoftwareType,DateUTC
2013-07-07 00:11:00,90.0,52.0,-100.00,SSW,202,5.0,8.0,28,0.00,,,0.00,0.000000,,2013-07-07 07:11:00,
2013-07-07 00:22:00,90.0,52.0,-100.00,SSW,202,5.0,8.0,28,0.00,,,0.00,0.000000,,2013-07-07 07:22:00,
2013-07-07 00:33:00,90.0,52.0,-100.00,SSW,202,5.0,8.0,28,0.00,,,0.00,0.000000,,2013-07-07 07:33:00,
2013-07-07 00:44:00,90.0,52.0,-100.00,SSW,202,5.0,8.0,28,0.00,,,0.00,0.000000,,2013-07-07 07:44:00,
2013-07-07 01:33:00,85.0,54.0,-100.00,SSE,161,3.0,6.0,35,0.00,,,0.00,0.000000,,2013-07-07 08:33:00,
2013-07-07 01:43:00,85.0,54.0,-100.00,SSE,161,3.0,6.0,35,0.00,,,0.00,0.000000,,2013-07-07 08:43:00,
2013-07-07 02:12:00,86.0,56.0,-100.00,South,178,4.0,6.0,36,0.00,,,0.00,0.000000,,2013-07-07 09:12:00,
2013-07-07 02:22:00,86.0,56.0,-100.00,South,178,4.0,6.0,36,0.00,,,0.00,0.000000,,2013-07-07 09:22:00,
2013-07-07 02:34:00,86.0,56.0,-100.00,South,178,4.0,6.0,36,0.00,,,0.00,0.000000,,2013-07-07 09:34:00,
2013-07-07 02:43:00,86.0,56.0,-100.00,South,178,4.0,6.0,36,0.00,,,0.00,0.000000,,2013-07-07 09:43:00,
2013-07-07 03:12:00,83.0,55.0,-100.00,SSW,201,5.0,6.0,39,0.00,,,0.00,0.000000,,2013-07-07 10:12:00,
2013-07-07 03:22:00,83.0,55.0,-100.00,SSW,201,5.0,6.0,39,0.00,,,0.00,0.000000,,2013-07-07 10:22:00,
2013-07-07 03:32:00,83.0,55.0,-100.00,SSW,201,5.0,6.0,39,0.00,,,0.00,0.000000,,2013-07-07 10:32:00,
2013-07-07 03:43:00,83.0,55.0,-100.00,SSW,201,5.0,6.0,39,0.00,,,0.00,0.000000,,2013-07-07 10:43:00,
2013-07-07 04:11:00,83.0,58.0,-100.00,South,170,3.0,7.0,43,0.00,,,0.00,0.000000,,2013-07-07 11:11:00,
2013-07-07 04:23:00,83.0,58.0,-100.00,South,170,3.0,7.0,43,0.00,,,0.00,0.000000,,2013-07-07 11:23:00,
2013-07-07 04:34:00,83.0,58.0,-100.00,South,170,3.0,7.0,43,0.00,,,0.00,0.000000,,2013-07-07 11:34:00,
2013-07-07 04:43:00,83.0,58.0,-100.00,South,170,3.0,7.0,43,0.00,,,0.00,0.000000,,2013-07-07 11:43:00,
2013-07-07 05:43:00,79.0,60.0,-100.00,SSE,160,3.0,5.0,53,0.00,,,0.00,0.000000,,2013-07-07 12:43:00,
2013-07-07 07:22:00,84.0,60.0,-100.00,SSW,198,4.0,6.0,45,0.00,,,0.00,89.000000,,2013-07-07 14:22:00,
2013-07-07 07:34:00,84.0,60.0,-100.00,SSW,198,4.0,6.0,45,0.00,,,0.00,89.000000,,2013-07-07 14:34:00,
2013-07-07 07:43:00,84.0,60.0,-100.00,SSW,198,4.0,6.0,45,0.00,,,0.00,89.000000,,2013-07-07 14:43:00,
2013-07-07 08:11:00,90.0,61.0,-100.00,South,172,6.0,9.0,38,0.00,,,0.00,295.000000,,2013-07-07 15:11:00,
2013-07-07 08:22:00,90.0,61.0,-100.00,South,172,6.0,9.0,38,0.00,,,0.00,295.000000,,2013-07-07 15:22:00,
2013-07-07 08:34:00,90.0,61.0,-100.00,South,172,6.0,9.0,38,0.00,,,0.00,295.000000,,2013-07-07 15:34:00,
2013-07-07 08:43:00,90.0,61.0,-100.00,South,172,6.0,9.0,38,0.00,,,0.00,295.000000,,2013-07-07 15:43:00,
2013-07-07 09:11:00,96.0,56.0,-100.00,South,173,8.0,12.0,26,0.00,,,0.00,523.000000,,2013-07-07 16:11:00,
2013-07-07 09:22:00,96.0,56.0,-100.00,South,173,8.0,12.0,26,0.00,,,0.00,523.000000,,2013-07-07 16:22:00,
2013-07-07 09:33:00,96.0,56.0,-100.00,South,173,8.0,12.0,26,0.00,,,0.00,523.000000,,2013-07-07 16:33:00,
2013-07-07 09:43:00,96.0,56.0,-100.00,South,173,8.0,12.0,26,0.00,,,0.00,523.000000,,2013-07-07 16:43:00,
2013-07-07 10:12:00,99.0,56.0,-100.00,SSE,163,7.0,12.0,24,0.00,,,0.00,738.000000,,2013-07-07 17:12:00,
2013-07-07 10:22:00,99.0,56.0,-100.00,SSE,163,7.0,12.0,24,0.00,,,0.00,738.000000,,2013-07-07 17:22:00,
2013-07-07 10:34:00,99.0,56.0,-100.00,SSE,163,7.0,12.0,24,0.00,,,0.00,738.000000,,2013-07-07 17:34:00,
2013-07-07 10:43:00,99.0,56.0,-100.00,SSE,163,7.0,12.0,24,0.00,,,0.00,738.000000,,2013-07-07 17:43:00,
2013-07-07 11:11:00,105.0,51.0,-100.00,SSE,163,7.0,11.0,17,0.00,,,0.00,917.000000,,2013-07-07 18:11:00,
2013-07-07 11:22:00,105.0,51.0,-100.00,SSE,163,7.0,11.0,17,0.00,,,0.00,917.000000,,2013-07-07 18:22:00,
2013-07-07 11:33:00,105.0,51.0,-100.00,SSE,163,7.0,11.0,17,0.00,,,0.00,917.000000,,2013-07-07 18:33:00,
2013-07-07 11:43:00,105.0,51.0,-100.00,SSE,163,7.0,11.0,17,0.00,,,0.00,917.000000,,2013-07-07 18:43:00,
2013-07-07 12:11:00,108.0,55.0,-100.00,SSE,165,5.0,12.0,18,0.00,,,0.00,1034.000000,,2013-07-07 19:11:00,
2013-07-07 12:22:00,108.0,55.0,-100.00,SSE,165,5.0,12.0,18,0.00,,,0.00,1034.000000,,2013-07-07 19:22:00,
2013-07-07 12:33:00,108.0,55.0,-100.00,SSE,165,5.0,12.0,18,0.00,,,0.00,1034.000000,,2013-07-07 19:33:00,
2013-07-07 12:43:00,108.0,55.0,-100.00,SSE,165,5.0,12.0,18,0.00,,,0.00,1034.000000,,2013-07-07 19:43:00,
2013-07-07 13:11:00,111.0,54.0,-100.00,SE,128,5.0,11.0,16,0.00,,,0.00,1087.000000,,2013-07-07 20:11:00,
2013-07-07 13:22:00,111.0,54.0,-100.00,SE,128,5.0,11.0,16,0.00,,,0.00,1087.000000,,2013-07-07 20:22:00,
2013-07-07 13:34:00,111.0,54.0,-100.00,SE,128,5.0,11.0,16,0.00,,,0.00,1087.000000,,2013-07-07 20:34:00,
2013-07-07 13:42:00,111.0,54.0,-100.00,SE,128,5.0,11.0,16,0.00,,,0.00,1087.000000,,2013-07-07 20:42:00,
2013-07-07 14:11:00,112.0,47.0,-100.00,SSE,148,7.0,11.0,12,0.00,,,0.00,1077.000000,,2013-07-07 21:11:00,
2013-07-07 14:22:00,112.0,47.0,-100.00,SSE,148,7.0,11.0,12,0.00,,,0.00,1077.000000,,2013-07-07 21:22:00,
2013-07-07 14:33:00,112.0,47.0,-100.00,SSE,148,7.0,11.0,12,0.00,,,0.00,1077.000000,,2013-07-07 21:33:00,
2013-07-07 14:43:00,112.0,47.0,-100.00,SSE,148,7.0,11.0,12,0.00,,,0.00,1077.000000,,2013-07-07 21:43:00,
2013-07-07 15:11:00,113.0,48.0,-100.00,SE,139,8.0,13.0,12,0.00,,,0.00,1003.000000,,2013-07-07 22:11:00,
2013-07-07 15:22:00,113.0,48.0,-100.00,SE,139,8.0,13.0,12,0.00,,,0.00,1003.000000,,2013-07-07 22:22:00,
2013-07-07 15:33:00,113.0,48.0,-100.00,SE,139,8.0,13.0,12,0.00,,,0.00,1003.000000,,2013-07-07 22:33:00,
2013-07-07 15:43:00,113.0,48.0,-100.00,SE,139,8.0,13.0,12,0.00,,,0.00,1003.000000,,2013-07-07 22:43:00,
2013-07-07 16:12:00,114.0,44.0,-100.00,SE,130,9.0,15.0,10,0.00,,,0.00,864.000000,,2013-07-07 23:12:00,
2013-07-07 16:22:00,114.0,44.0,-100.00,SE,130,9.0,15.0,10,0.00,,,0.00,864.000000,,2013-07-07 23:22:00,
2013-07-07 16:33:00,114.0,44.0,-100.00,SE,130,9.0,15.0,10,0.00,,,0.00,864.000000,,2013-07-07 23:33:00,
2013-07-07 16:43:00,114.0,44.0,-100.00,SE,130,9.0,15.0,10,0.00,,,0.00,864.000000,,2013-07-07 23:43:00,
2013-07-07 17:22:00,114.0,47.0,-100.00,SSW,194,7.0,15.0,11,0.00,,,0.00,679.000000,,2013-07-08 00:22:00,
2013-07-07 17:33:00,114.0,47.0,-100.00,SSW,194,7.0,15.0,11,0.00,,,0.00,679.000000,,2013-07-08 00:33:00,
2013-07-07 17:43:00,114.0,47.0,-100.00,SSW,194,7.0,15.0,11,0.00,,,0.00,679.000000,,2013-07-08 00:43:00,
2013-07-07 18:11:00,114.0,44.0,-100.00,SW,223,7.0,13.0,10,0.00,,,0.00,462.000000,,2013-07-08 01:11:00,
2013-07-07 18:21:00,114.0,44.0,-100.00,SW,223,7.0,13.0,10,0.00,,,0.00,462.000000,,2013-07-08 01:21:00,
2013-07-07 18:32:00,114.0,44.0,-100.00,SW,223,7.0,13.0,10,0.00,,,0.00,462.000000,,2013-07-08 01:32:00,
2013-07-07 18:42:00,114.0,44.0,-100.00,SW,223,7.0,13.0,10,0.00,,,0.00,462.000000,,2013-07-08 01:42:00,
2013-07-07 19:11:00,109.0,51.0,-100.00,SSW,198,6.0,11.0,15,0.00,,,0.00,236.000000,,2013-07-08 02:11:00,
2013-07-07 19:22:00,109.0,51.0,-100.00,SSW,198,6.0,11.0,15,0.00,,,0.00,236.000000,,2013-07-08 02:22:00,
2013-07-07 19:33:00,109.0,51.0,-100.00,SSW,198,6.0,11.0,15,0.00,,,0.00,236.000000,,2013-07-08 02:33:00,
2013-07-07 19:42:00,109.0,51.0,-100.00,SSW,198,6.0,11.0,15,0.00,,,0.00,236.000000,,2013-07-08 02:42:00,
2013-07-07 20:12:00,106.0,47.0,-100.00,WSW,241,5.0,12.0,14,0.00,,,0.00,60.000000,,2013-07-08 03:12:00,
2013-07-07 20:22:00,106.0,47.0,-100.00,WSW,241,5.0,12.0,14,0.00,,,0.00,60.000000,,2013-07-08 03:22:00,
2013-07-07 20:34:00,106.0,47.0,-100.00,WSW,241,5.0,12.0,14,0.00,,,0.00,60.000000,,2013-07-08 03:34:00,
2013-07-07 20:42:00,106.0,47.0,-100.00,WSW,241,5.0,12.0,14,0.00,,,0.00,60.000000,,2013-07-08 03:42:00,